createdAt,value
2017-01-27T00:00:02.153Z,21.45
2017-01-27T00:00:17.057Z,21.4
2017-01-27T00:00:31.776Z,21.43
2017-01-27T00:00:46.694Z,21.37
2017-01-27T00:01:01.311Z,21.41
2017-01-27T00:01:16.001Z,21.43
2017-01-27T00:01:30.720Z,21.43
2017-01-27T00:01:45.451Z,21.4
2017-01-27T00:02:00.160Z,21.38
2017-01-27T00:02:15.066Z,21.38
2017-01-27T00:02:29.951Z,21.37
2017-01-27T00:02:44.594Z,21.34
2017-01-27T00:02:59.376Z,21.37
2017-01-27T00:03:14.019Z,21.4
2017-01-27T00:03:28.728Z,21.41
2017-01-27T00:03:43.535Z,21.3
2017-01-27T00:03:58.435Z,21.3
2017-01-27T00:04:13.207Z,21.31
2017-01-27T00:04:27.900Z,21.3
2017-01-27T00:04:42.816Z,21.27
2017-01-27T00:04:57.681Z,21.27
2017-01-27T00:05:12.388Z,21.31
2017-01-27T00:05:27.012Z,21.28
2017-01-27T00:05:41.693Z,21.33
2017-01-27T00:05:56.442Z,21.28
2017-01-27T00:06:11.182Z,21.3
2017-01-27T00:06:26.085Z,21.31
2017-01-27T00:06:40.685Z,21.38
2017-01-27T00:06:55.209Z,21.33
2017-01-27T00:07:09.984Z,21.31
2017-01-27T00:07:24.800Z,21.36
2017-01-27T00:07:39.343Z,21.31
2017-01-27T00:07:54.150Z,21.4
2017-01-27T00:08:08.905Z,21.4
2017-01-27T00:08:23.598Z,21.41
2017-01-27T00:08:38.115Z,21.37
2017-01-27T00:08:52.885Z,21.4
2017-01-27T00:09:07.631Z,21.38
2017-01-27T00:09:22.403Z,21.31
2017-01-27T00:09:37.216Z,21.4
2017-01-27T00:09:52.050Z,21.34
2017-01-27T00:10:06.901Z,21.46
2017-01-27T00:10:21.692Z,21.46
2017-01-27T00:10:36.448Z,21.48
2017-01-27T00:10:51.161Z,21.46
2017-01-27T00:11:05.940Z,21.52
2017-01-27T00:11:20.661Z,21.49
2017-01-27T00:11:35.361Z,21.56
2017-01-27T00:11:50.188Z,21.62
2017-01-27T00:12:11.223Z,21.61
2017-01-27T00:12:25.913Z,21.66
2017-01-27T00:12:40.581Z,21.7
2017-01-27T00:12:55.359Z,21.67
2017-01-27T00:13:10.137Z,21.62
2017-01-27T00:13:24.950Z,21.67
2017-01-27T00:13:39.829Z,21.7
2017-01-27T00:13:54.531Z,21.73
2017-01-27T00:14:09.255Z,21.76
2017-01-27T00:14:24.039Z,21.73
2017-01-27T00:15:06.331Z,21.77
2017-01-27T00:15:21.289Z,21.74
2017-01-27T00:15:36.080Z,21.83
2017-01-27T00:15:50.924Z,21.85
2017-01-27T00:16:05.559Z,21.92
2017-01-27T00:16:20.306Z,21.7
2017-01-27T00:16:45.274Z,21.77
2017-01-27T00:17:00.038Z,21.82
2017-01-27T00:17:15.862Z,21.7
2017-01-27T00:17:30.508Z,21.74
2017-01-27T00:17:50.225Z,21.78
2017-01-27T00:18:04.853Z,21.76
2017-01-27T00:18:50.957Z,21.74
2017-01-27T00:19:05.776Z,21.76
2017-01-27T00:19:20.651Z,21.76
2017-01-27T00:19:38.073Z,21.77
2017-01-27T00:19:52.825Z,21.78
2017-01-27T00:20:53.239Z,21.74
2017-01-27T00:21:08.050Z,21.73
2017-01-27T00:21:22.760Z,21.73
2017-01-27T00:21:38.392Z,21.77
2017-01-27T00:22:05.635Z,21.82
2017-01-27T00:22:20.473Z,21.83
2017-01-27T00:22:35.130Z,21.85
2017-01-27T00:22:49.766Z,21.82
2017-01-27T00:23:04.654Z,21.8
2017-01-27T00:23:19.613Z,21.85
2017-01-27T00:23:56.595Z,21.82
2017-01-27T00:24:17.753Z,21.83
2017-01-27T00:25:03.336Z,21.9
2017-01-27T00:25:37.192Z,21.82
2017-01-27T00:25:52.058Z,21.8
2017-01-27T00:26:14.019Z,21.83
2017-01-27T00:26:28.829Z,21.9
2017-01-27T00:26:43.600Z,21.82
2017-01-27T00:26:58.311Z,21.85
2017-01-27T00:27:25.877Z,21.78
2017-01-27T00:27:40.836Z,21.8
2017-01-27T00:27:55.644Z,21.82
2017-01-27T00:28:10.576Z,21.9
2017-01-27T00:28:25.194Z,21.86
2017-01-27T00:28:39.758Z,21.76
2017-01-27T00:29:04.798Z,21.86
2017-01-27T00:30:05.268Z,21.83
2017-01-27T00:30:20.121Z,21.83
2017-01-27T00:30:34.790Z,21.78
2017-01-27T00:30:49.708Z,21.85
2017-01-27T00:31:04.299Z,21.86
2017-01-27T00:31:18.923Z,21.86
2017-01-27T00:31:52.807Z,21.85
2017-01-27T00:32:07.510Z,21.78
2017-01-27T00:32:22.357Z,21.85
2017-01-27T00:32:56.174Z,21.73
2017-01-27T00:33:11.008Z,21.74
2017-01-27T00:33:25.791Z,21.77
2017-01-27T00:33:40.439Z,21.73
2017-01-27T00:33:55.227Z,21.77
2017-01-27T00:34:20.307Z,21.78
2017-01-27T00:34:48.657Z,21.82
2017-01-27T00:35:04.299Z,21.7
2017-01-27T00:35:19.044Z,21.7
2017-01-27T00:35:38.743Z,21.68
2017-01-27T00:35:53.574Z,21.71
2017-01-27T00:36:08.159Z,21.64
2017-01-27T00:36:22.881Z,21.62
2017-01-27T00:36:40.614Z,21.61
2017-01-27T00:36:55.290Z,21.59
2017-01-27T00:37:20.420Z,21.62
2017-01-27T00:38:02.214Z,21.58
2017-01-27T00:38:17.088Z,21.59
2017-01-27T00:38:31.788Z,21.62
2017-01-27T00:38:46.542Z,21.64
2017-01-27T00:39:06.340Z,21.62
2017-01-27T00:39:43.587Z,21.59
2017-01-27T00:39:58.500Z,21.64
2017-01-27T00:40:13.210Z,21.67
2017-01-27T00:40:33.833Z,21.66
2017-01-27T00:40:48.598Z,21.64
2017-01-27T00:41:03.652Z,21.66
2017-01-27T00:41:18.392Z,21.66
2017-01-27T00:41:32.988Z,21.58
2017-01-27T00:41:50.912Z,21.58
2017-01-27T00:42:05.620Z,21.66
2017-01-27T00:42:20.263Z,21.61
2017-01-27T00:42:34.941Z,21.62
2017-01-27T00:42:49.604Z,21.64
2017-01-27T00:43:04.415Z,21.62
2017-01-27T00:43:19.078Z,21.64
2017-01-27T00:43:34.005Z,21.68
2017-01-27T00:43:48.652Z,21.61
2017-01-27T00:44:24.629Z,21.61
2017-01-27T00:44:39.323Z,21.58
2017-01-27T00:44:54.141Z,21.59
2017-01-27T00:45:40.464Z,21.55
2017-01-27T00:45:55.369Z,21.62
2017-01-27T00:46:18.075Z,21.59
2017-01-27T00:46:32.861Z,21.53
2017-01-27T00:46:57.758Z,21.56
2017-01-27T00:47:35.390Z,21.53
2017-01-27T00:47:56.640Z,21.56
2017-01-27T00:48:11.472Z,21.49
2017-01-27T00:48:26.245Z,21.51
2017-01-27T00:48:41.032Z,21.55
2017-01-27T00:48:55.826Z,21.52
2017-01-27T00:49:10.594Z,21.53
2017-01-27T00:49:50.345Z,21.58
2017-01-27T00:50:05.069Z,21.62
2017-01-27T00:50:19.886Z,21.62
2017-01-27T00:50:34.620Z,21.71
2017-01-27T00:50:49.232Z,21.66
2017-01-27T00:51:03.936Z,21.62
2017-01-27T00:51:18.655Z,21.64
2017-01-27T00:51:43.596Z,21.67
2017-01-27T00:51:59.437Z,21.67
2017-01-27T00:52:14.223Z,21.67
2017-01-27T00:52:28.840Z,21.58
2017-01-27T00:52:56.374Z,21.71
2017-01-27T00:53:11.990Z,21.66
2017-01-27T00:53:27.906Z,21.66
2017-01-27T00:53:43.746Z,21.67
2017-01-27T00:54:01.316Z,21.58
2017-01-27T00:54:16.089Z,21.67
2017-01-27T00:54:31.029Z,21.67
2017-01-27T00:54:48.914Z,21.64
2017-01-27T00:55:14.730Z,21.68
2017-01-27T00:55:29.491Z,21.71
2017-01-27T00:55:44.436Z,21.64
2017-01-27T00:55:59.222Z,21.67
2017-01-27T00:56:14.121Z,21.61
2017-01-27T00:56:29.055Z,21.71
2017-01-27T00:56:43.836Z,21.64
2017-01-27T00:56:58.438Z,21.67
2017-01-27T00:57:13.253Z,21.7
2017-01-27T00:57:28.145Z,21.74
2017-01-27T00:57:42.888Z,21.76
2017-01-27T00:57:57.636Z,21.74
2017-01-27T00:58:12.393Z,21.74
2017-01-27T00:59:03.039Z,21.74
2017-01-27T00:59:17.790Z,21.74
2017-01-27T00:59:32.477Z,21.77
2017-01-27T01:00:06.284Z,21.85
2017-01-27T01:00:20.981Z,21.86
2017-01-27T01:00:35.708Z,21.85
2017-01-27T01:01:21.615Z,21.83
2017-01-27T01:01:36.182Z,21.76
2017-01-27T01:01:50.989Z,21.76
2017-01-27T01:02:05.970Z,21.77
2017-01-27T01:02:21.432Z,21.74
2017-01-27T01:02:36.296Z,21.74
2017-01-27T01:02:51.060Z,21.68
2017-01-27T01:03:05.721Z,21.74
2017-01-27T01:03:20.495Z,21.74
2017-01-27T01:04:00.384Z,21.77
2017-01-27T01:04:14.931Z,21.7
2017-01-27T01:05:00.599Z,21.71
2017-01-27T01:05:39.014Z,21.71
2017-01-27T01:05:53.653Z,21.73
2017-01-27T01:06:08.512Z,21.71
2017-01-27T01:06:23.158Z,21.68
2017-01-27T01:06:37.916Z,21.67
2017-01-27T01:06:57.821Z,21.71
2017-01-27T01:07:18.938Z,21.68
2017-01-27T01:07:33.686Z,21.68
2017-01-27T01:07:59.288Z,21.68
2017-01-27T01:08:14.025Z,21.7
2017-01-27T01:08:30.931Z,21.7
2017-01-27T01:08:46.847Z,21.62
2017-01-27T01:09:01.601Z,21.67
2017-01-27T01:09:16.408Z,21.61
2017-01-27T01:09:31.034Z,21.61
2017-01-27T01:09:45.918Z,21.64
2017-01-27T01:10:00.678Z,21.64
2017-01-27T01:10:15.363Z,21.61
2017-01-27T01:10:30.035Z,21.56
2017-01-27T01:10:49.707Z,21.68
2017-01-27T01:11:04.412Z,21.59
2017-01-27T01:11:19.240Z,21.62
2017-01-27T01:11:34.065Z,21.64
2017-01-27T01:11:48.812Z,21.55
2017-01-27T01:12:03.593Z,21.66
2017-01-27T01:12:19.467Z,21.66
2017-01-27T01:13:05.163Z,21.56
2017-01-27T01:13:19.703Z,21.61
2017-01-27T01:13:34.464Z,21.59
2017-01-27T01:13:49.375Z,21.58
2017-01-27T01:14:04.216Z,21.55
2017-01-27T01:14:18.881Z,21.59
2017-01-27T01:14:33.658Z,21.53
2017-01-27T01:14:48.373Z,21.55
2017-01-27T01:15:03.008Z,21.56
2017-01-27T01:15:17.867Z,21.53
2017-01-27T01:15:32.550Z,21.53
2017-01-27T01:15:47.069Z,21.61
2017-01-27T01:16:01.740Z,21.49
2017-01-27T01:16:19.598Z,21.53
2017-01-27T01:16:44.835Z,21.53
2017-01-27T01:17:10.430Z,21.53
2017-01-27T01:17:25.047Z,21.55
2017-01-27T01:17:53.132Z,21.51
2017-01-27T01:18:07.872Z,21.49
2017-01-27T01:18:22.626Z,21.49
2017-01-27T01:18:38.587Z,21.53
2017-01-27T01:18:53.325Z,21.52
2017-01-27T01:19:08.200Z,21.56
2017-01-27T01:19:23.058Z,21.49
2017-01-27T01:19:37.639Z,21.52
2017-01-27T01:20:37.957Z,21.53
2017-01-27T01:20:52.643Z,21.49
2017-01-27T01:21:08.407Z,21.51
2017-01-27T01:21:23.110Z,21.51
2017-01-27T01:21:37.870Z,21.49
2017-01-27T01:22:08.364Z,21.45
2017-01-27T01:22:23.149Z,21.56
2017-01-27T01:22:37.699Z,21.53
2017-01-27T01:23:04.353Z,21.48
2017-01-27T01:23:19.088Z,21.52
2017-01-27T01:23:33.962Z,21.49
2017-01-27T01:23:59.769Z,21.48
2017-01-27T01:24:14.583Z,21.51
2017-01-27T01:24:29.259Z,21.55
2017-01-27T01:24:44.014Z,21.49
2017-01-27T01:24:58.840Z,21.41
2017-01-27T01:25:13.673Z,21.48
2017-01-27T01:25:28.344Z,21.41
2017-01-27T01:25:42.993Z,21.41
2017-01-27T01:25:57.903Z,21.41
2017-01-27T01:26:12.536Z,21.41
2017-01-27T01:26:27.120Z,21.45
2017-01-27T01:26:41.851Z,21.46
2017-01-27T01:27:02.779Z,21.41
2017-01-27T01:27:17.578Z,21.45
2017-01-27T01:27:32.488Z,21.48
2017-01-27T01:27:52.185Z,21.45
2017-01-27T01:28:06.964Z,21.49
2017-01-27T01:28:28.178Z,21.41
2017-01-27T01:28:42.923Z,21.51
2017-01-27T01:28:59.724Z,21.46
2017-01-27T01:29:14.472Z,21.51
2017-01-27T01:29:29.032Z,21.45
2017-01-27T01:29:43.861Z,21.4
2017-01-27T01:29:58.723Z,21.41
2017-01-27T01:30:13.667Z,21.43
2017-01-27T01:30:29.231Z,21.41
2017-01-27T01:30:43.847Z,21.46
2017-01-27T01:30:58.504Z,21.51
2017-01-27T01:31:18.138Z,21.41
2017-01-27T01:31:59.474Z,21.51
2017-01-27T01:32:27.014Z,21.46
2017-01-27T01:32:41.764Z,21.48
2017-01-27T01:32:56.330Z,21.53
2017-01-27T01:33:11.140Z,21.48
2017-01-27T01:33:31.703Z,21.49
2017-01-27T01:33:46.528Z,21.51
2017-01-27T01:34:01.193Z,21.52
2017-01-27T01:34:20.806Z,21.49
2017-01-27T01:34:35.497Z,21.49
2017-01-27T01:34:50.287Z,21.41
2017-01-27T01:35:04.872Z,21.48
2017-01-27T01:35:20.509Z,21.51
2017-01-27T01:35:35.215Z,21.43
2017-01-27T01:35:51.179Z,21.51
2017-01-27T01:36:05.859Z,21.52
2017-01-27T01:36:20.570Z,21.59
2017-01-27T01:36:35.387Z,21.64
2017-01-27T01:37:21.056Z,21.56
2017-01-27T01:37:35.958Z,21.58
2017-01-27T01:37:50.635Z,21.59
2017-01-27T01:38:25.400Z,21.61
2017-01-27T01:38:40.144Z,21.59
2017-01-27T01:38:54.965Z,21.61
2017-01-27T01:39:12.671Z,21.66
2017-01-27T01:39:27.516Z,21.61
2017-01-27T01:39:42.569Z,21.58
2017-01-27T01:39:57.451Z,21.58
2017-01-27T01:40:15.246Z,21.61
2017-01-27T01:40:29.929Z,21.52
2017-01-27T01:41:41.292Z,21.52
2017-01-27T01:41:56.025Z,21.52
2017-01-27T01:42:10.640Z,21.56
2017-01-27T01:42:35.754Z,21.55
2017-01-27T01:42:50.373Z,21.52
2017-01-27T01:43:14.721Z,21.48
2017-01-27T01:43:29.434Z,21.53
2017-01-27T01:43:44.117Z,21.43
2017-01-27T01:43:58.895Z,21.49
2017-01-27T01:44:13.594Z,21.41
2017-01-27T01:44:28.334Z,21.43
2017-01-27T01:44:43.098Z,21.41
2017-01-27T01:44:57.787Z,21.49
2017-01-27T01:45:12.501Z,21.43
2017-01-27T01:45:27.253Z,21.43
2017-01-27T01:45:41.993Z,21.48
2017-01-27T01:45:56.831Z,21.38
2017-01-27T01:46:34.871Z,21.51
2017-01-27T01:46:49.662Z,21.49
2017-01-27T01:47:04.899Z,21.43
2017-01-27T01:47:19.686Z,21.48
2017-01-27T01:47:34.789Z,21.49
2017-01-27T01:47:52.802Z,21.45
2017-01-27T01:48:07.540Z,21.43
2017-01-27T01:48:22.245Z,21.48
2017-01-27T01:48:36.975Z,21.41
2017-01-27T01:48:51.659Z,21.49
2017-01-27T01:49:06.355Z,21.43
2017-01-27T01:49:21.205Z,21.46
2017-01-27T01:49:35.930Z,21.46
2017-01-27T01:49:50.596Z,21.48
2017-01-27T01:50:05.319Z,21.48
2017-01-27T01:50:20.089Z,21.46
2017-01-27T01:50:45.711Z,21.52
2017-01-27T01:51:00.629Z,21.48
2017-01-27T01:51:15.155Z,21.45
2017-01-27T01:51:29.919Z,21.48
2017-01-27T01:51:44.689Z,21.52
2017-01-27T01:51:59.504Z,21.51
2017-01-27T01:52:14.140Z,21.55
2017-01-27T01:52:28.916Z,21.45
2017-01-27T01:52:43.839Z,21.49
2017-01-27T01:52:58.503Z,21.48
2017-01-27T01:53:13.319Z,21.48
2017-01-27T01:53:28.076Z,21.55
2017-01-27T01:53:42.856Z,21.55
2017-01-27T01:53:57.503Z,21.48
2017-01-27T01:54:12.214Z,21.41
2017-01-27T01:54:26.893Z,21.52
2017-01-27T01:54:41.669Z,21.46
2017-01-27T01:54:56.448Z,21.46
2017-01-27T01:55:11.152Z,21.48
2017-01-27T01:55:25.917Z,21.51
2017-01-27T01:55:40.558Z,21.41
2017-01-27T01:55:55.282Z,21.46
2017-01-27T01:56:10.126Z,21.37
2017-01-27T01:56:24.947Z,21.45
2017-01-27T01:56:39.658Z,21.38
2017-01-27T01:56:54.398Z,21.51
2017-01-27T01:57:08.986Z,21.31
2017-01-27T01:57:23.920Z,21.34
2017-01-27T01:57:38.681Z,21.41
2017-01-27T01:57:53.634Z,21.37
2017-01-27T01:58:08.474Z,21.34
2017-01-27T01:58:23.258Z,21.38
2017-01-27T01:58:38.007Z,21.43
2017-01-27T01:58:52.703Z,21.38
2017-01-27T01:59:07.339Z,21.38
2017-01-27T01:59:22.218Z,21.38
2017-01-27T01:59:36.970Z,21.4
2017-01-27T01:59:51.641Z,21.34
2017-01-27T02:00:06.524Z,21.4
2017-01-27T02:00:21.274Z,21.33
2017-01-27T02:00:36.026Z,21.4
2017-01-27T02:00:50.816Z,21.38
2017-01-27T02:01:05.470Z,21.37
2017-01-27T02:01:20.215Z,21.33
2017-01-27T02:01:34.934Z,21.36
2017-01-27T02:01:49.644Z,21.36
2017-01-27T02:02:04.273Z,21.34
2017-01-27T02:02:19.009Z,21.37
2017-01-27T02:02:33.641Z,21.36
2017-01-27T02:02:48.920Z,21.33
2017-01-27T02:03:03.766Z,21.37
2017-01-27T02:03:18.414Z,21.34
2017-01-27T02:03:33.141Z,21.27
2017-01-27T02:03:47.817Z,21.37
2017-01-27T02:04:02.591Z,21.37
2017-01-27T02:04:17.275Z,21.37
2017-01-27T02:04:31.980Z,21.38
2017-01-27T02:04:46.641Z,21.38
2017-01-27T02:05:01.449Z,21.33
2017-01-27T02:05:16.143Z,21.34
2017-01-27T02:05:30.908Z,21.37
2017-01-27T02:05:45.747Z,21.37
2017-01-27T02:06:00.525Z,21.38
2017-01-27T02:06:15.350Z,21.33
2017-01-27T02:06:30.029Z,21.34
2017-01-27T02:06:44.848Z,21.31
2017-01-27T02:06:59.537Z,21.37
2017-01-27T02:07:14.345Z,21.37
2017-01-27T02:07:29.107Z,21.33
2017-01-27T02:07:43.867Z,21.36
2017-01-27T02:07:58.791Z,21.37
2017-01-27T02:08:13.411Z,21.4
2017-01-27T02:08:28.183Z,21.38
2017-01-27T02:08:43.039Z,21.41
2017-01-27T02:08:57.676Z,21.4
2017-01-27T02:09:12.451Z,21.33
2017-01-27T02:09:27.325Z,21.34
2017-01-27T02:09:41.946Z,21.41
2017-01-27T02:09:56.699Z,21.36
2017-01-27T02:10:11.536Z,21.38
2017-01-27T02:10:26.218Z,21.37
2017-01-27T02:10:40.854Z,21.37
2017-01-27T02:10:55.614Z,21.36
2017-01-27T02:11:10.441Z,21.41
2017-01-27T02:11:25.259Z,21.46
2017-01-27T02:11:40.003Z,21.38
2017-01-27T02:11:54.875Z,21.4
2017-01-27T02:12:09.654Z,21.37
2017-01-27T02:12:24.366Z,21.34
2017-01-27T02:12:39.131Z,21.41
2017-01-27T02:12:54.031Z,21.37
2017-01-27T02:13:08.870Z,21.38
2017-01-27T02:13:23.574Z,21.38
2017-01-27T02:13:38.299Z,21.45
2017-01-27T02:13:53.273Z,21.45
2017-01-27T02:14:07.951Z,21.36
2017-01-27T02:14:22.514Z,21.41
2017-01-27T02:14:37.434Z,21.4
2017-01-27T02:14:52.124Z,21.37
2017-01-27T02:15:06.848Z,21.37
2017-01-27T02:15:21.528Z,21.41
2017-01-27T02:15:36.279Z,21.41
2017-01-27T02:15:50.859Z,21.4
2017-01-27T02:16:05.504Z,21.41
2017-01-27T02:16:20.204Z,21.33
2017-01-27T02:16:34.990Z,21.4
2017-01-27T02:16:49.550Z,21.4
2017-01-27T02:17:04.403Z,21.37
2017-01-27T02:17:19.344Z,21.38
2017-01-27T02:17:34.018Z,21.43
2017-01-27T02:17:48.891Z,21.4
2017-01-27T02:18:03.566Z,21.36
2017-01-27T02:18:18.380Z,21.43
2017-01-27T02:18:33.202Z,21.37
2017-01-27T02:18:48.038Z,21.37
2017-01-27T02:19:02.865Z,21.37
2017-01-27T02:19:17.648Z,21.34
2017-01-27T02:19:32.354Z,21.41
2017-01-27T02:19:47.083Z,21.38
2017-01-27T02:20:01.811Z,21.34
2017-01-27T02:20:16.372Z,21.37
2017-01-27T02:20:30.960Z,21.45
2017-01-27T02:20:45.729Z,21.34
2017-01-27T02:21:00.569Z,21.43
2017-01-27T02:21:15.321Z,21.43
2017-01-27T02:21:30.028Z,21.45
2017-01-27T02:21:44.854Z,21.46
2017-01-27T02:21:59.575Z,21.51
2017-01-27T02:22:14.219Z,21.49
2017-01-27T02:22:28.924Z,21.51
2017-01-27T02:22:43.825Z,21.51
2017-01-27T02:22:58.535Z,21.46
2017-01-27T02:23:13.305Z,21.4
2017-01-27T02:23:27.970Z,21.43
2017-01-27T02:23:42.690Z,21.48
2017-01-27T02:23:57.449Z,21.46
2017-01-27T02:24:12.173Z,21.45
2017-01-27T02:24:26.904Z,21.48
2017-01-27T02:24:41.678Z,21.4
2017-01-27T02:24:56.367Z,21.4
2017-01-27T02:25:11.141Z,21.46
2017-01-27T02:25:25.890Z,21.46
2017-01-27T02:25:40.755Z,21.46
2017-01-27T02:25:55.376Z,21.51
2017-01-27T02:26:10.028Z,21.41
2017-01-27T02:26:24.639Z,21.48
2017-01-27T02:26:39.199Z,21.48
2017-01-27T02:26:53.938Z,21.52
2017-01-27T02:27:08.766Z,21.53
2017-01-27T02:27:23.390Z,21.55
2017-01-27T02:27:38.203Z,21.56
2017-01-27T02:27:52.995Z,21.56
2017-01-27T02:28:07.675Z,21.55
2017-01-27T02:28:22.569Z,21.52
2017-01-27T02:28:37.463Z,21.49
2017-01-27T02:28:52.047Z,21.51
2017-01-27T02:29:06.694Z,21.48
2017-01-27T02:29:21.378Z,21.51
2017-01-27T02:29:36.160Z,21.45
2017-01-27T02:29:50.953Z,21.46
2017-01-27T02:30:05.785Z,21.51
2017-01-27T02:30:20.509Z,21.45
2017-01-27T02:30:35.004Z,21.45
2017-01-27T02:30:49.659Z,21.43
2017-01-27T02:31:04.499Z,21.43
2017-01-27T02:31:19.068Z,21.34
2017-01-27T02:31:33.944Z,21.41
2017-01-27T02:31:48.787Z,21.38
2017-01-27T02:32:03.455Z,21.43
2017-01-27T02:32:18.249Z,21.36
2017-01-27T02:32:32.818Z,21.38
2017-01-27T02:32:47.496Z,21.25
2017-01-27T02:33:02.628Z,21.38
2017-01-27T02:33:17.290Z,21.23
2017-01-27T02:33:31.950Z,21.33
2017-01-27T02:33:46.720Z,21.33
2017-01-27T02:34:01.579Z,21.4
2017-01-27T02:34:16.276Z,21.3
2017-01-27T02:34:31.078Z,21.27
2017-01-27T02:34:45.889Z,21.28
2017-01-27T02:35:00.753Z,21.28
2017-01-27T02:35:15.635Z,21.22
2017-01-27T02:35:30.382Z,21.31
2017-01-27T02:35:45.080Z,21.19
2017-01-27T02:35:59.881Z,21.3
2017-01-27T02:36:14.593Z,21.23
2017-01-27T02:36:29.337Z,21.27
2017-01-27T02:36:43.975Z,21.28
2017-01-27T02:36:58.677Z,21.28
2017-01-27T02:37:13.304Z,21.28
2017-01-27T02:37:27.994Z,21.3
2017-01-27T02:37:42.732Z,21.23
2017-01-27T02:37:57.569Z,21.25
2017-01-27T02:38:12.204Z,21.28
2017-01-27T02:38:27.051Z,21.27
2017-01-27T02:38:41.747Z,21.3
2017-01-27T02:38:56.577Z,21.31
2017-01-27T02:39:11.211Z,21.3
2017-01-27T02:39:25.790Z,21.33
2017-01-27T02:39:40.567Z,21.31
2017-01-27T02:39:55.326Z,21.31
2017-01-27T02:40:10.048Z,21.33
2017-01-27T02:40:24.758Z,21.23
2017-01-27T02:40:39.406Z,21.22
2017-01-27T02:40:54.265Z,21.23
2017-01-27T02:41:09.075Z,21.25
2017-01-27T02:41:23.848Z,21.33
2017-01-27T02:41:38.591Z,21.3
2017-01-27T02:41:53.413Z,21.3
2017-01-27T02:42:08.055Z,21.27
2017-01-27T02:42:22.830Z,21.23
2017-01-27T02:42:37.665Z,21.28
2017-01-27T02:42:52.421Z,21.27
2017-01-27T02:43:07.375Z,21.28
2017-01-27T02:43:22.098Z,21.27
2017-01-27T02:43:36.916Z,21.25
2017-01-27T02:43:51.752Z,21.28
2017-01-27T02:44:06.448Z,21.28
2017-01-27T02:44:21.177Z,21.27
2017-01-27T02:44:35.888Z,21.31
2017-01-27T02:44:50.782Z,21.28
2017-01-27T02:45:05.477Z,21.23
2017-01-27T02:45:20.323Z,21.31
2017-01-27T02:45:34.970Z,21.28
2017-01-27T02:45:49.660Z,21.33
2017-01-27T02:46:04.494Z,21.28
2017-01-27T02:46:19.200Z,21.31
2017-01-27T02:46:34.034Z,21.22
2017-01-27T02:46:48.732Z,21.28
2017-01-27T02:47:03.356Z,21.27
2017-01-27T02:47:18.081Z,21.25
2017-01-27T02:47:32.802Z,21.27
2017-01-27T02:47:47.426Z,21.28
2017-01-27T02:48:02.564Z,21.27
2017-01-27T02:48:17.390Z,21.27
2017-01-27T02:48:32.193Z,21.27
2017-01-27T02:48:47.072Z,21.27
2017-01-27T02:49:01.830Z,21.25
2017-01-27T02:49:16.777Z,21.27
2017-01-27T02:49:31.652Z,21.3
2017-01-27T02:49:46.521Z,21.25
2017-01-27T02:50:01.218Z,21.23
2017-01-27T02:50:16.043Z,21.23
2017-01-27T02:50:30.721Z,21.27
2017-01-27T02:50:45.502Z,21.25
2017-01-27T02:51:00.295Z,21.3
2017-01-27T02:51:15.077Z,21.33
2017-01-27T02:51:29.714Z,21.3
2017-01-27T02:51:44.399Z,21.33
2017-01-27T02:51:59.142Z,21.33
2017-01-27T02:52:14.008Z,21.31
2017-01-27T02:52:28.777Z,21.31
2017-01-27T02:52:43.574Z,21.38
2017-01-27T02:52:58.495Z,21.34
2017-01-27T02:53:13.313Z,21.31
2017-01-27T02:53:28.153Z,21.43
2017-01-27T02:53:43.000Z,21.33
2017-01-27T02:53:57.817Z,21.37
2017-01-27T02:54:12.541Z,21.41
2017-01-27T02:54:27.284Z,21.46
2017-01-27T02:54:42.005Z,21.49
2017-01-27T02:54:56.731Z,21.55
2017-01-27T02:55:11.555Z,21.59
2017-01-27T02:55:26.260Z,21.61
2017-01-27T02:55:40.984Z,21.58
2017-01-27T02:55:55.756Z,21.62
2017-01-27T02:56:10.618Z,21.61
2017-01-27T02:56:25.312Z,21.64
2017-01-27T02:56:40.099Z,21.56
2017-01-27T02:56:54.743Z,21.68
2017-01-27T02:57:09.527Z,21.61
2017-01-27T02:57:24.178Z,21.64
2017-01-27T02:57:39.007Z,21.67
2017-01-27T02:57:53.785Z,21.67
2017-01-27T02:58:08.509Z,21.67
2017-01-27T02:58:23.307Z,21.64
2017-01-27T02:58:37.952Z,21.68
2017-01-27T02:58:52.702Z,21.76
2017-01-27T02:59:07.411Z,21.68
2017-01-27T02:59:22.310Z,21.74
2017-01-27T02:59:36.984Z,21.7
2017-01-27T02:59:51.688Z,21.74
2017-01-27T03:00:06.463Z,21.77
2017-01-27T03:00:21.170Z,21.71
2017-01-27T03:00:35.836Z,21.8
2017-01-27T03:00:50.522Z,21.93
2017-01-27T03:01:05.131Z,21.89
2017-01-27T03:01:19.845Z,21.86
2017-01-27T03:01:34.699Z,21.93
2017-01-27T03:01:49.479Z,21.9
2017-01-27T03:02:04.083Z,21.86
2017-01-27T03:02:18.848Z,21.94
2017-01-27T03:02:33.575Z,21.9
2017-01-27T03:02:48.251Z,21.96
2017-01-27T03:03:03.068Z,21.86
2017-01-27T03:03:18.185Z,21.97
2017-01-27T03:03:32.848Z,21.9
2017-01-27T03:03:47.627Z,21.86
2017-01-27T03:04:02.418Z,21.86
2017-01-27T03:04:17.090Z,21.9
2017-01-27T03:04:31.713Z,21.9
2017-01-27T03:04:46.501Z,21.86
2017-01-27T03:05:01.190Z,21.9
2017-01-27T03:05:15.938Z,21.86
2017-01-27T03:05:30.844Z,21.82
2017-01-27T03:05:45.507Z,21.85
2017-01-27T03:06:00.289Z,21.85
2017-01-27T03:06:14.914Z,21.92
2017-01-27T03:06:29.673Z,21.96
2017-01-27T03:06:44.406Z,21.97
2017-01-27T03:06:59.201Z,21.97
2017-01-27T03:07:13.936Z,21.9
2017-01-27T03:07:28.595Z,21.97
2017-01-27T03:07:43.566Z,21.97
2017-01-27T03:07:58.350Z,22.05
2017-01-27T03:08:13.211Z,21.99
2017-01-27T03:08:27.833Z,22.05
2017-01-27T03:08:42.506Z,21.9
2017-01-27T03:08:57.153Z,22.07
2017-01-27T03:09:12.076Z,21.97
2017-01-27T03:09:26.797Z,21.99
2017-01-27T03:09:41.926Z,21.99
2017-01-27T03:09:56.809Z,21.96
2017-01-27T03:10:11.663Z,22
2017-01-27T03:10:26.455Z,21.97
2017-01-27T03:10:41.127Z,21.96
2017-01-27T03:10:55.926Z,21.97
2017-01-27T03:11:10.680Z,21.86
2017-01-27T03:11:25.345Z,21.82
2017-01-27T03:11:40.170Z,21.94
2017-01-27T03:11:55.062Z,21.96
2017-01-27T03:12:09.724Z,21.92
2017-01-27T03:12:24.451Z,21.97
2017-01-27T03:12:39.136Z,21.96
2017-01-27T03:12:53.810Z,21.94
2017-01-27T03:13:08.383Z,21.86
2017-01-27T03:13:23.185Z,21.89
2017-01-27T03:13:37.918Z,21.85
2017-01-27T03:13:52.848Z,21.9
2017-01-27T03:14:07.474Z,21.93
2017-01-27T03:14:22.346Z,21.92
2017-01-27T03:14:37.176Z,21.96
2017-01-27T03:14:51.882Z,21.96
2017-01-27T03:15:06.518Z,21.92
2017-01-27T03:15:21.176Z,21.93
2017-01-27T03:15:35.832Z,21.9
2017-01-27T03:15:50.710Z,21.89
2017-01-27T03:16:05.616Z,21.89
2017-01-27T03:16:20.371Z,21.92
2017-01-27T03:16:35.210Z,21.85
2017-01-27T03:16:49.927Z,21.9
2017-01-27T03:17:04.801Z,21.86
2017-01-27T03:17:19.590Z,21.92
2017-01-27T03:17:34.353Z,21.92
2017-01-27T03:17:49.079Z,21.86
2017-01-27T03:18:03.746Z,21.89
2017-01-27T03:18:18.823Z,21.86
2017-01-27T03:18:33.596Z,21.9
2017-01-27T03:18:48.288Z,21.9
2017-01-27T03:19:02.877Z,21.89
2017-01-27T03:19:17.640Z,21.85
2017-01-27T03:19:32.473Z,21.83
2017-01-27T03:19:47.272Z,21.86
2017-01-27T03:20:02.110Z,21.93
2017-01-27T03:20:16.769Z,21.89
2017-01-27T03:20:31.395Z,21.83
2017-01-27T03:20:46.104Z,21.85
2017-01-27T03:21:00.755Z,21.8
2017-01-27T03:21:15.516Z,21.8
2017-01-27T03:21:30.286Z,21.85
2017-01-27T03:21:45.029Z,21.73
2017-01-27T03:21:59.789Z,21.83
2017-01-27T03:22:14.504Z,21.82
2017-01-27T03:22:29.192Z,21.73
2017-01-27T03:22:43.864Z,21.74
2017-01-27T03:22:58.542Z,21.8
2017-01-27T03:23:13.357Z,21.8
2017-01-27T03:23:27.907Z,21.83
2017-01-27T03:23:42.681Z,21.93
2017-01-27T03:23:57.491Z,21.89
2017-01-27T03:24:12.209Z,21.83
2017-01-27T03:24:27.006Z,21.85
2017-01-27T03:24:41.801Z,21.89
2017-01-27T03:24:56.575Z,21.82
2017-01-27T03:25:11.205Z,21.85
2017-01-27T03:25:26.012Z,21.83
2017-01-27T03:25:40.682Z,21.9
2017-01-27T03:25:55.439Z,21.83
2017-01-27T03:26:10.266Z,21.85
2017-01-27T03:26:25.151Z,21.85
2017-01-27T03:26:39.846Z,21.83
2017-01-27T03:26:54.376Z,21.9
2017-01-27T03:27:09.216Z,21.89
2017-01-27T03:27:23.978Z,21.86
2017-01-27T03:27:38.904Z,21.89
2017-01-27T03:27:53.551Z,21.85
2017-01-27T03:28:08.320Z,21.86
2017-01-27T03:28:23.165Z,21.86
2017-01-27T03:28:37.769Z,21.8
2017-01-27T03:28:52.525Z,21.85
2017-01-27T03:29:07.271Z,21.89
2017-01-27T03:29:21.927Z,21.8
2017-01-27T03:29:36.703Z,21.86
2017-01-27T03:29:51.453Z,21.9
2017-01-27T03:30:06.098Z,21.85
2017-01-27T03:30:20.832Z,21.83
2017-01-27T03:30:35.521Z,21.78
2017-01-27T03:30:50.241Z,21.89